createdAt,value
2023-04-18T00:00:10.667Z,17.50
2023-04-18T00:10:36.098Z,14.30
2023-04-18T00:15:38.940Z,16.10
2023-04-18T00:20:41.821Z,16.40
2023-04-18T00:25:44.601Z,14.40
2023-04-18T00:30:47.418Z,15.00
2023-04-18T00:35:50.287Z,14.90
2023-04-18T00:40:53.061Z,15.40
2023-04-18T00:45:57.263Z,16.30
2023-04-18T00:51:00.740Z,16.90
2023-04-18T00:56:04.954Z,18.60
2023-04-18T01:01:08.025Z,15.60
2023-04-18T01:06:10.894Z,14.70
2023-04-18T01:11:13.663Z,15.20
2023-04-18T01:16:16.465Z,13.90
2023-04-18T01:21:20.470Z,16.40
2023-04-18T01:26:23.334Z,17.80
2023-04-18T01:31:26.235Z,22.40
2023-04-18T01:36:29.154Z,22.70
2023-04-18T01:41:33.094Z,19.40
2023-04-18T01:46:36.740Z,18.50
2023-04-18T01:51:39.573Z,16.20
2023-04-18T01:56:42.445Z,14.70
2023-04-18T02:01:45.270Z,16.30
2023-04-18T02:06:48.142Z,13.80
2023-04-18T02:11:51.071Z,13.50
2023-04-18T02:16:53.891Z,15.50
2023-04-18T02:21:56.742Z,17.60
2023-04-18T02:26:59.495Z,11.50
2023-04-18T02:32:02.342Z,14.80
2023-04-18T02:37:05.297Z,14.70
2023-04-18T02:42:08.075Z,15.00
2023-04-18T02:47:10.880Z,14.80
2023-04-18T02:52:14.857Z,13.10
2023-04-18T02:57:17.733Z,16.60
2023-04-18T03:02:21.147Z,15.70
2023-04-18T03:07:24.128Z,12.00
2023-04-18T03:12:26.928Z,17.40
2023-04-18T03:17:29.761Z,15.00
2023-04-18T03:22:32.556Z,15.30
2023-04-18T03:27:35.734Z,10.80
2023-04-18T03:32:38.746Z,13.00
2023-04-18T03:37:41.514Z,12.00
2023-04-18T03:42:44.400Z,15.40
2023-04-18T03:47:47.255Z,12.50
2023-04-18T03:52:50.022Z,15.00
2023-04-18T03:57:52.815Z,14.40
2023-04-18T04:02:55.836Z,13.70
2023-04-18T04:07:58.865Z,14.10
2023-04-18T04:13:01.663Z,13.10
2023-04-18T04:18:06.289Z,11.30
2023-04-18T04:23:10.143Z,13.10
2023-04-18T04:28:13.779Z,14.30
2023-04-18T04:33:20.819Z,11.40
2023-04-18T04:38:23.593Z,12.20
2023-04-18T04:43:28.903Z,15.40
2023-04-18T04:48:31.708Z,11.90
2023-04-18T04:53:34.635Z,13.70
2023-04-18T04:58:37.449Z,16.70
2023-04-18T05:03:40.526Z,14.30
2023-04-18T05:08:43.531Z,17.00
2023-04-18T05:13:46.325Z,16.20
2023-04-18T05:18:49.052Z,15.60
2023-04-18T05:23:51.930Z,14.90
2023-04-18T05:28:55.020Z,16.60
2023-04-18T05:33:57.750Z,14.20
2023-04-18T05:39:02.902Z,15.00
2023-04-18T05:44:07.086Z,17.80
2023-04-18T05:49:10.720Z,16.20
2023-04-18T05:54:13.801Z,15.20
2023-04-18T05:59:17.550Z,17.60
2023-04-18T06:04:21.477Z,14.80
2023-04-18T06:09:24.509Z,15.60
2023-04-18T06:14:28.432Z,18.60
2023-04-18T06:19:36.002Z,13.10
2023-04-18T06:24:42.523Z,13.10
2023-04-18T06:34:49.719Z,13.10
2023-04-18T06:39:56.146Z,11.70
2023-04-18T06:44:59.805Z,8.50
2023-04-18T06:50:06.127Z,11.20
2023-04-18T06:55:10.002Z,9.60
2023-04-18T07:00:13.739Z,9.20
2023-04-18T07:05:17.437Z,9.50
2023-04-18T07:10:21.347Z,10.00
2023-04-18T07:15:31.153Z,10.50
2023-04-18T07:20:40.467Z,9.50
2023-04-18T07:25:43.373Z,10.40
2023-04-18T07:30:46.217Z,8.70
2023-04-18T07:35:50.705Z,8.10
2023-04-18T07:41:02.712Z,7.50
2023-04-18T07:46:07.049Z,8.00
2023-04-18T07:51:11.605Z,7.20
2023-04-18T07:56:15.565Z,8.30
2023-04-18T08:01:20.970Z,6.50
2023-04-18T08:06:27.220Z,8.30
2023-04-18T08:11:30.454Z,7.80
2023-04-18T08:16:33.432Z,6.20
2023-04-18T08:21:37.353Z,7.00
2023-04-18T08:26:40.520Z,7.20
2023-04-18T08:31:43.456Z,7.40
2023-04-18T08:36:46.371Z,6.90
2023-04-18T08:41:57.355Z,6.50
2023-04-18T08:47:02.096Z,6.60
2023-04-18T08:52:14.064Z,6.60
2023-04-18T08:57:18.416Z,6.00
2023-04-18T09:02:23.542Z,6.20
2023-04-18T09:07:30.507Z,5.50
2023-04-18T09:12:42.462Z,6.40
2023-04-18T09:17:51.073Z,6.70
2023-04-18T09:23:00.837Z,6.70
2023-04-18T09:28:27.088Z,6.10
2023-04-18T09:33:34.538Z,6.20
2023-04-18T09:38:41.396Z,6.00
2023-04-18T09:43:45.782Z,7.80
2023-04-18T09:48:53.238Z,6.40
2023-04-18T09:53:56.529Z,7.00
2023-04-18T09:59:07.347Z,5.50
2023-04-18T10:04:12.131Z,5.60
2023-04-18T10:09:16.476Z,6.10
2023-04-18T10:14:20.122Z,7.30
2023-04-18T10:19:28.681Z,6.40
2023-04-18T10:24:57.072Z,7.00
2023-04-18T10:29:59.970Z,7.10
2023-04-18T10:35:05.472Z,8.20
2023-04-18T10:40:10.566Z,8.20
2023-04-18T10:45:26.860Z,7.40
2023-04-18T10:50:29.927Z,8.60
2023-04-18T10:55:35.872Z,7.20
2023-04-18T11:00:40.522Z,6.30
2023-04-18T11:05:46.447Z,5.70
2023-04-18T11:11:03.202Z,7.50
2023-04-18T11:21:43.385Z,5.30
2023-04-18T11:26:46.288Z,6.90
2023-04-18T11:31:55.263Z,5.30
2023-04-18T11:37:00.634Z,5.60
2023-04-18T11:42:03.920Z,6.60
2023-04-18T11:47:34.983Z,6.20
2023-04-18T11:52:40.354Z,6.40
2023-04-18T11:57:49.392Z,7.80
2023-04-18T12:02:57.437Z,6.80
2023-04-18T12:08:17.355Z,6.90
2023-04-18T12:13:26.943Z,7.20
2023-04-18T12:18:42.739Z,7.10
2023-04-18T12:30:42.725Z,7.20
2023-04-18T12:35:48.391Z,7.40
2023-04-18T12:40:52.593Z,7.10
2023-04-18T12:46:03.353Z,7.20
2023-04-18T12:51:07.188Z,7.10
2023-04-18T12:56:10.018Z,7.50
2023-04-18T13:01:18.064Z,7.40
2023-04-18T13:06:21.530Z,7.70
2023-04-18T13:11:28.519Z,6.10
2023-04-18T13:16:31.843Z,7.30
2023-04-18T13:21:35.168Z,6.00
2023-04-18T13:26:40.197Z,6.40
2023-04-18T13:31:43.243Z,8.20
2023-04-18T13:36:46.077Z,7.20
2023-04-18T13:41:50.795Z,8.30
2023-04-18T13:46:53.732Z,9.20
2023-04-18T13:51:59.367Z,7.90
2023-04-18T13:57:04.024Z,8.80
2023-04-18T14:02:08.719Z,10.60
2023-04-18T14:07:14.552Z,10.60
2023-04-18T14:12:48.665Z,12.10
2023-04-18T14:17:51.880Z,10.20
2023-04-18T14:22:54.759Z,11.20
2023-04-18T14:28:08.155Z,11.20
2023-04-18T14:33:11.114Z,9.40
2023-04-18T14:38:13.927Z,9.60
2023-04-18T14:43:16.926Z,8.60
2023-04-18T14:48:22.243Z,11.00
2023-04-18T14:53:25.398Z,10.40
2023-04-18T14:58:28.257Z,10.90
2023-04-18T15:03:31.496Z,9.40
2023-04-18T15:08:35.146Z,8.10
2023-04-18T15:13:40.452Z,7.50
2023-04-18T15:18:44.059Z,8.50
2023-04-18T15:23:46.947Z,10.10
2023-04-18T15:28:50.233Z,9.70
2023-04-18T15:33:53.033Z,11.00
2023-04-18T15:38:56.080Z,8.10
2023-04-18T15:43:58.873Z,9.70
2023-04-18T15:49:01.771Z,8.60
2023-04-18T15:54:04.700Z,8.00
2023-04-18T15:59:13.935Z,9.10
2023-04-18T16:04:19.088Z,11.90
2023-04-18T16:09:22.464Z,10.30
2023-04-18T16:14:25.376Z,10.60
2023-04-18T16:19:28.312Z,12.70
2023-04-18T16:24:31.262Z,12.00
2023-04-18T16:29:34.830Z,12.20
2023-04-18T16:34:37.675Z,10.90
2023-04-18T16:39:40.814Z,13.60
2023-04-18T16:44:47.205Z,14.40
2023-04-18T16:54:55.117Z,13.50
2023-04-18T16:59:58.722Z,11.40
2023-04-18T17:05:02.752Z,13.10
2023-04-18T17:10:08.807Z,13.40
2023-04-18T17:15:13.430Z,12.90
2023-04-18T17:20:17.909Z,14.80
2023-04-18T17:25:21.234Z,12.60
2023-04-18T17:30:24.405Z,10.70
2023-04-18T17:35:27.439Z,13.40
2023-04-18T17:40:31.322Z,12.70
2023-04-18T17:45:34.566Z,11.10
2023-04-18T17:50:42.984Z,13.20
2023-04-18T17:55:48.997Z,15.30
2023-04-18T18:00:53.037Z,13.40
2023-04-18T18:05:56.244Z,11.40
2023-04-18T18:11:01.727Z,10.80
2023-04-18T18:16:05.891Z,11.90
2023-04-18T18:21:08.798Z,11.30
2023-04-18T18:26:12.456Z,13.00
2023-04-18T18:31:15.262Z,16.30
2023-04-18T18:36:18.112Z,14.10
2023-04-18T18:41:24.594Z,13.40
2023-04-18T18:46:27.833Z,11.30
2023-04-18T18:51:31.087Z,13.30
2023-04-18T18:56:33.851Z,11.30
2023-04-18T19:01:37.086Z,11.20
2023-04-18T19:06:40.337Z,11.60
2023-04-18T19:11:43.082Z,9.90
2023-04-18T19:16:45.980Z,11.30
2023-04-18T19:21:48.772Z,10.30
2023-04-18T19:26:51.587Z,13.40
2023-04-18T19:31:54.409Z,11.50
2023-04-18T19:36:57.458Z,12.40
2023-04-18T19:42:02.000Z,10.00
2023-04-18T19:47:04.885Z,10.40
2023-04-18T19:52:07.802Z,8.60
2023-04-18T19:57:10.629Z,9.10
2023-04-18T20:02:15.143Z,9.30
2023-04-18T20:07:18.006Z,13.20
2023-04-18T20:12:21.075Z,9.00
2023-04-18T20:17:23.858Z,9.20
2023-04-18T20:22:26.920Z,11.00
2023-04-18T20:27:29.741Z,9.90
2023-04-18T20:32:33.582Z,10.20
2023-04-18T20:37:36.758Z,8.90
2023-04-18T20:42:39.913Z,9.40
2023-04-18T20:47:43.288Z,7.10
2023-04-18T20:52:49.190Z,10.50
2023-04-18T20:57:52.024Z,7.70
2023-04-18T21:02:54.980Z,11.80
2023-04-18T21:07:59.813Z,9.50
2023-04-18T21:13:02.595Z,7.80
2023-04-18T21:18:05.533Z,6.90
2023-04-18T21:23:08.413Z,8.30
2023-04-18T21:28:12.462Z,6.80
2023-04-18T21:33:15.236Z,9.00
2023-04-18T21:38:18.116Z,11.20
2023-04-18T21:43:20.983Z,6.20
2023-04-18T21:48:23.742Z,9.30
2023-04-18T21:53:26.512Z,9.70
2023-04-18T21:58:29.785Z,5.70
2023-04-18T22:03:34.224Z,8.00
2023-04-18T22:08:37.197Z,8.10
2023-04-18T22:13:40.196Z,6.10
2023-04-18T22:18:43.015Z,7.00
2023-04-18T22:23:45.944Z,9.60
2023-04-18T22:28:48.710Z,7.70
2023-04-18T22:33:51.516Z,7.50
2023-04-18T22:38:54.354Z,9.50
2023-04-18T22:43:57.081Z,6.00
2023-04-18T22:48:59.864Z,8.20
2023-04-18T22:54:02.670Z,9.50
2023-04-18T22:59:05.407Z,9.20
2023-04-18T23:04:08.454Z,8.80
2023-04-18T23:09:11.453Z,8.70
2023-04-18T23:14:17.416Z,6.70
2023-04-18T23:19:20.235Z,5.90
2023-04-18T23:24:23.115Z,9.60
2023-04-18T23:29:25.914Z,8.90
2023-04-18T23:34:28.710Z,7.30
2023-04-18T23:39:31.490Z,8.40
2023-04-18T23:44:34.294Z,8.00
2023-04-18T23:49:37.071Z,7.30
2023-04-18T23:54:39.869Z,10.20
2023-04-18T23:59:42.645Z,11.00
